Time;durP1;ratioP1;P1;durP2;ratioP2;P2;SDS_P1;SDS_P2;PMS_P1;PMS_P2;Temp;Humidity;BMP_temperature;BMP_pressure;BME280_temperature;BME280_humidity;BME280_pressure;Samples;Min_cycle;Max_cycle;Signal;HPM_P1;HPM_P2
2022/02/21 00:08:52;;;;;;;3.22;0.60;;;6.90;99.90;;;;;;20644585;28;20038;-47
2022/02/21 00:18:53;;;;;;;4.63;0.77;;;6.90;99.90;;;;;;20656412;28;20054;-47
2022/02/21 00:28:54;;;;;;;2.47;0.68;;;6.80;99.90;;;;;;20653498;28;20053;-47
2022/02/21 00:38:55;;;;;;;6.97;0.40;;;6.80;99.90;;;;;;20650277;28;20038;-47
2022/02/21 00:48:56;;;;;;;3.35;0.65;;;6.70;99.90;;;;;;20646712;28;20046;-47
2022/02/21 00:58:57;;;;;;;3.78;0.82;;;6.60;99.90;;;;;;20648691;28;20510;-47
2022/02/21 01:08:58;;;;;;;2.20;0.80;;;6.50;99.90;;;;;;20642515;28;20030;-47
2022/02/21 01:18:59;;;;;;;1.23;0.40;;;6.40;99.90;;;;;;20635070;28;20038;-47
2022/02/21 01:29:01;;;;;;;7.07;1.13;;;6.40;99.90;;;;;;20641200;28;20041;-47
2022/02/21 01:39:02;;;;;;;10.38;1.20;;;6.30;99.90;;;;;;20645779;28;20390;-46
2022/02/21 01:49:04;;;;;;;3.90;0.80;;;6.30;99.90;;;;;;20647752;28;20037;-46
2022/02/21 01:59:07;;;;;;;7.30;0.95;;;6.30;99.90;;;;;;20645124;28;20037;-46
2022/02/21 02:09:08;;;;;;;2.72;0.55;;;6.40;99.90;;;;;;20636573;28;20049;-47
2022/02/21 02:19:09;;;;;;;2.15;0.50;;;6.30;99.90;;;;;;20645633;28;20537;-46
2022/02/21 02:29:10;;;;;;;1.33;0.30;;;6.20;99.90;;;;;;20645674;28;20046;-46
2022/02/21 02:39:13;;;;;;;1.85;0.35;;;6.30;99.90;;;;;;20627557;28;20042;-46
2022/02/21 02:49:15;;;;;;;2.58;0.68;;;6.30;99.90;;;;;;20624119;28;20046;-46
2022/02/21 02:59:16;;;;;;;3.90;0.75;;;6.20;99.90;;;;;;20648212;28;20054;-46
2022/02/21 03:09:17;;;;;;;5.78;0.63;;;6.20;99.90;;;;;;20642215;28;20065;-47
2022/02/21 03:19:24;;;;;;;2.25;0.80;;;6.20;99.90;;;;;;20653260;28;20042;-46
2022/02/21 03:29:25;;;;;;;3.40;0.73;;;5.90;99.90;;;;;;20635857;28;20046;-46
2022/02/21 03:39:26;;;;;;;2.15;0.80;;;5.80;99.90;;;;;;20643962;28;20042;-46
2022/02/21 03:49:27;;;;;;;1.17;0.20;;;5.80;99.90;;;;;;20639433;28;20061;-46
2022/02/21 03:59:28;;;;;;;4.82;1.88;;;5.90;99.90;;;;;;20632115;28;20050;-46
2022/02/21 04:09:29;;;;;;;4.20;0.40;;;5.90;99.90;;;;;;20637323;28;20038;-46
2022/02/21 04:19:30;;;;;;;1.38;0.32;;;5.80;99.90;;;;;;20634784;28;20450;-46
2022/02/21 04:29:32;;;;;;;0.77;0.25;;;5.70;99.90;;;;;;20636020;28;20414;-46
2022/02/21 04:39:33;;;;;;;5.47;0.40;;;5.60;99.90;;;;;;20635663;28;20054;-46
2022/02/21 04:49:34;;;;;;;3.40;1.38;;;5.70;99.90;;;;;;20634234;28;20062;-46
2022/02/21 04:59:35;;;;;;;1.88;1.67;;;5.60;99.90;;;;;;20629482;28;20636;-46
2022/02/21 05:09:36;;;;;;;7.63;0.93;;;5.70;99.90;;;;;;20644934;28;20426;-46
2022/02/21 05:19:37;;;;;;;6.93;1.05;;;5.60;99.90;;;;;;20664000;28;20046;-46
2022/02/21 05:29:38;;;;;;;12.10;1.30;;;5.50;99.90;;;;;;20670475;28;20038;-46
2022/02/21 05:39:39;;;;;;;8.98;2.38;;;5.50;99.90;;;;;;20665831;28;20509;-46
2022/02/21 05:49:41;;;;;;;3.65;0.88;;;5.40;99.90;;;;;;20670192;28;20046;-46
2022/02/21 05:59:42;;;;;;;7.63;1.35;;;5.30;99.90;;;;;;20660385;28;20593;-46
2022/02/21 06:09:44;;;;;;;3.03;1.45;;;5.40;99.90;;;;;;20660417;28;20513;-46
2022/02/21 06:19:46;;;;;;;5.93;1.10;;;5.40;99.90;;;;;;20654304;28;20042;-46
2022/02/21 06:29:48;;;;;;;6.35;0.50;;;5.50;99.90;;;;;;20650928;28;20057;-46
2022/02/21 06:39:49;;;;;;;3.25;0.63;;;5.50;99.90;;;;;;20660642;28;20046;-46
2022/02/21 06:49:50;;;;;;;9.30;0.93;;;5.50;99.90;;;;;;20656616;28;20181;-46
2022/02/21 06:59:51;;;;;;;10.88;0.80;;;5.50;99.90;;;;;;20658966;28;20052;-47
2022/02/21 07:09:55;;;;;;;8.45;1.05;;;5.40;99.90;;;;;;20655034;28;20042;-46
2022/02/21 07:19:56;;;;;;;7.65;0.80;;;5.50;99.90;;;;;;20662773;28;20050;-46
2022/02/21 07:30:03;;;;;;;10.05;1.13;;;5.70;99.90;;;;;;20654959;28;20133;-47
2022/02/21 07:40:05;;;;;;;6.63;0.77;;;5.90;99.90;;;;;;20655634;28;20552;-47
2022/02/21 07:50:07;;;;;;;1.30;0.40;;;6.10;99.90;;;;;;20655584;28;20038;-47
2022/02/21 08:00:11;;;;;;;1.15;0.43;;;6.30;99.90;;;;;;20659008;28;20042;-47
2022/02/21 08:10:13;;;;;;;3.13;0.77;;;6.30;99.90;;;;;;20634968;28;20588;-47
2022/02/21 08:20:20;;;;;;;3.83;0.90;;;6.20;99.90;;;;;;20609346;28;20042;-46
2022/02/21 08:30:21;;;;;;;;;;;5.30;99.90;;;;;;20619990;28;20042;-46
2022/02/21 08:40:24;;;;;;;4.50;0.70;;;4.80;99.90;;;;;;20640991;28;19930;-47
2022/02/21 08:50:26;;;;;;;3.78;0.50;;;4.60;99.90;;;;;;20646152;28;20051;-47
2022/02/21 09:00:27;;;;;;;3.78;1.10;;;4.60;99.90;;;;;;20670055;28;20061;-48
2022/02/21 09:10:30;;;;;;;3.60;0.90;;;4.60;99.90;;;;;;20590905;28;20038;-47
2022/02/21 09:20:31;;;;;;;5.22;0.63;;;4.60;99.90;;;;;;20661891;28;20046;-47
2022/02/21 09:30:32;;;;;;;5.90;0.93;;;4.60;99.90;;;;;;20613564;28;20042;-47
2022/02/21 09:40:34;;;;;;;7.25;1.23;;;4.70;99.90;;;;;;20655740;28;20052;-47
2022/02/21 09:50:35;;;;;;;2.72;0.47;;;4.80;99.90;;;;;;20646041;28;20054;-48
2022/02/21 10:00:37;;;;;;;7.07;0.90;;;4.90;99.90;;;;;;20665940;28;20488;-48
2022/02/21 10:10:42;;;;;;;6.47;1.55;;;5.10;99.90;;;;;;20653259;28;20034;-48
2022/02/21 10:21:10;;;;;;;2.75;0.88;;;5.50;99.90;;;;;;20651067;28;20481;-47
2022/02/21 10:31:23;;;;;;;14.57;1.33;;;5.90;99.90;;;;;;20607086;28;21531;-47
2022/02/21 10:42:07;;;;;;;10.20;2.35;;;6.00;99.90;;;;;;20584717;28;1816778;-46
2022/02/21 10:52:17;;;;;;;9.63;2.33;;;6.10;99.90;;;;;;20611452;28;20058;-48
2022/02/21 11:02:22;;;;;;;8.13;1.27;;;6.10;99.90;;;;;;20660525;28;21506;-47
2022/02/21 11:12:27;;;;;;;6.60;1.02;;;6.30;99.90;;;;;;20610586;28;20038;-48
2022/02/21 11:22:29;;;;;;;9.82;2.75;;;6.30;99.90;;;;;;20647489;28;20045;-49
2022/02/21 11:32:30;;;;;;;8.98;1.98;;;6.50;99.90;;;;;;20630523;28;20168;-47
2022/02/21 11:42:33;;;;;;;6.20;0.63;;;6.70;99.90;;;;;;20645951;28;20053;-47
2022/02/21 11:52:38;;;;;;;12.75;1.77;;;6.90;99.90;;;;;;20647639;28;20052;-47
2022/02/21 12:03:14;;;;;;;11.23;2.08;;;7.10;99.90;;;;;;20651262;28;20050;-47
2022/02/21 12:13:20;;;;;;;3.42;0.82;;;7.40;99.90;;;;;;20621734;28;20484;-48
2022/02/21 12:23:21;;;;;;;12.95;1.65;;;7.70;99.90;;;;;;20647260;28;20148;-47
2022/02/21 12:33:31;;;;;;;9.55;1.23;;;7.70;99.90;;;;;;20626455;28;20061;-47
2022/02/21 12:43:53;;;;;;;9.57;1.77;;;7.80;99.90;;;;;;20622558;28;20034;-47
2022/02/21 12:54:10;;;;;;;13.73;2.47;;;7.70;99.90;;;;;;20625444;28;20049;-47
2022/02/21 13:04:11;;;;;;;13.90;0.70;;;7.60;99.90;;;;;;20639921;28;20039;-47
2022/02/21 13:14:20;;;;;;;10.77;1.42;;;7.70;99.90;;;;;;20625364;28;20148;-47
2022/02/21 13:24:22;;;;;;;2.53;0.60;;;7.90;99.90;;;;;;20593143;28;20394;-46
2022/02/21 13:35:01;;;;;;;3.10;0.60;;;7.80;99.90;;;;;;20649560;28;20053;-47
2022/02/21 13:45:27;;;;;;;7.90;1.85;;;8.10;99.90;;;;;;20643013;28;20192;-46
2022/02/21 13:55:34;;;;;;;3.80;0.75;;;7.90;99.90;;;;;;20657677;28;21549;-46
2022/02/21 14:05:58;;;;;;;8.00;1.50;;;7.90;99.90;;;;;;20648502;28;20030;-46
2022/02/21 14:16:00;;;;;;;5.32;0.75;;;7.90;99.90;;;;;;20647211;28;20042;-46
2022/02/21 14:26:02;;;;;;;5.35;0.93;;;7.90;99.90;;;;;;20641513;28;20050;-46
2022/02/21 14:36:04;;;;;;;2.83;0.70;;;7.90;99.90;;;;;;20629159;28;20046;-46
2022/02/21 14:46:06;;;;;;;2.17;0.25;;;7.90;99.90;;;;;;20646690;28;20042;-46
2022/02/21 14:56:08;;;;;;;6.10;0.50;;;7.90;99.90;;;;;;20656456;28;20484;-47
2022/02/21 15:06:09;;;;;;;2.42;0.50;;;8.00;99.90;;;;;;20640003;28;20053;-46
2022/02/21 15:16:16;;;;;;;1.13;0.28;;;7.90;99.90;;;;;;20638603;28;20065;-46
2022/02/21 15:26:17;;;;;;;4.00;0.70;;;7.90;99.90;;;;;;20620773;28;21563;-46
2022/02/21 15:36:21;;;;;;;1.10;0.40;;;7.90;99.90;;;;;;20628494;28;20085;-45
2022/02/21 15:46:24;;;;;;;4.97;0.70;;;8.10;99.90;;;;;;20626974;28;20042;-45
2022/02/21 15:56:25;;;;;;;8.32;0.50;;;8.10;99.90;;;;;;20640887;28;20615;-45
2022/02/21 16:06:26;;;;;;;4.53;1.10;;;8.00;99.90;;;;;;20608782;28;20490;-46
2022/02/21 16:16:29;;;;;;;3.35;0.38;;;8.10;99.90;;;;;;20646060;28;20579;-46
2022/02/21 16:26:31;;;;;;;6.95;0.88;;;8.10;99.90;;;;;;20642483;28;20050;-46
2022/02/21 16:36:32;;;;;;;4.03;1.10;;;8.00;99.90;;;;;;20651349;28;20403;-45
2022/02/21 16:46:33;;;;;;;4.93;1.15;;;8.10;99.90;;;;;;20635243;28;20053;-45
2022/02/21 16:56:34;;;;;;;9.30;2.05;;;8.10;99.90;;;;;;20648158;28;20053;-45
2022/02/21 17:06:35;;;;;;;7.30;2.50;;;7.90;99.90;;;;;;20652734;28;20049;-46
2022/02/21 17:16:36;;;;;;;3.20;0.70;;;7.90;99.90;;;;;;20668165;28;21019;-46
2022/02/21 17:26:37;;;;;;;9.40;1.15;;;7.90;99.90;;;;;;20676677;28;20038;-46
2022/02/21 17:36:38;;;;;;;6.28;1.13;;;7.90;99.90;;;;;;20659258;28;20050;-46
2022/02/21 17:46:40;;;;;;;6.28;1.23;;;8.00;99.90;;;;;;20679024;28;20049;-46
2022/02/21 17:56:42;;;;;;;5.30;0.70;;;7.90;99.90;;;;;;20679556;28;20494;-46
2022/02/21 18:06:43;;;;;;;12.27;1.30;;;8.10;99.90;;;;;;20700756;28;20036;-45
2022/02/21 18:16:44;;;;;;;9.73;0.98;;;8.20;99.90;;;;;;20659402;28;20405;-46
2022/02/21 18:26:45;;;;;;;1.00;0.45;;;8.40;99.90;;;;;;20683590;28;20042;-46
2022/02/21 18:36:46;;;;;;;11.20;1.67;;;8.40;99.90;;;;;;20706844;28;20057;-46
2022/02/21 18:46:49;;;;;;;28.70;2.70;;;8.30;99.90;;;;;;20687778;28;20056;-46
2022/02/21 18:56:51;;;;;;;2.10;0.68;;;8.10;99.90;;;;;;20698251;28;20053;-46
2022/02/21 19:06:53;;;;;;;9.60;0.85;;;8.10;99.90;;;;;;20659932;28;20328;-46
2022/02/21 19:16:54;;;;;;;4.57;0.68;;;8.00;99.90;;;;;;20670539;28;20049;-46
2022/02/21 19:26:55;;;;;;;8.68;1.30;;;7.90;99.90;;;;;;20678249;28;20052;-46
2022/02/21 19:36:56;;;;;;;7.97;1.63;;;7.90;99.90;;;;;;20692444;28;21025;-46
2022/02/21 19:46:58;;;;;;;9.13;1.60;;;7.80;99.90;;;;;;20657662;28;20046;-46
2022/02/21 19:56:59;;;;;;;10.32;2.15;;;7.80;99.90;;;;;;20650717;28;20045;-46
2022/02/21 20:07:00;;;;;;;14.02;2.10;;;7.90;99.90;;;;;;20650553;28;20121;-47
2022/02/21 20:17:03;;;;;;;5.47;2.28;;;7.80;99.90;;;;;;20657556;28;20057;-46
2022/02/21 20:27:05;;;;;;;7.00;1.42;;;7.90;99.90;;;;;;20649892;28;20035;-46
2022/02/21 20:37:06;;;;;;;6.30;1.40;;;7.80;99.90;;;;;;20648871;28;20058;-46
2022/02/21 20:47:07;;;;;;;18.25;2.78;;;7.80;99.90;;;;;;20664408;28;20045;-46
2022/02/21 20:57:08;;;;;;;9.23;1.67;;;7.70;99.90;;;;;;20672210;28;20060;-46
2022/02/21 21:07:09;;;;;;;8.90;1.23;;;7.70;99.90;;;;;;20654943;28;20383;-46
2022/02/21 21:17:11;;;;;;;13.30;1.98;;;7.40;99.90;;;;;;20669037;28;20192;-46
2022/02/21 21:27:12;;;;;;;12.80;1.85;;;7.30;99.90;;;;;;20657429;28;20432;-46
2022/02/21 21:37:14;;;;;;;14.57;2.42;;;7.10;99.90;;;;;;20663918;28;20050;-46
2022/02/21 21:47:15;;;;;;;8.45;1.58;;;7.00;99.90;;;;;;20665904;28;20035;-46
2022/02/21 21:57:17;;;;;;;14.10;1.63;;;7.10;99.90;;;;;;20660690;28;20046;-46
2022/02/21 22:07:18;;;;;;;9.05;1.77;;;7.20;99.90;;;;;;20660312;28;20057;-46
2022/02/21 22:17:19;;;;;;;7.60;1.83;;;7.00;99.90;;;;;;20664961;28;20046;-46
2022/02/21 22:27:20;;;;;;;23.90;1.77;;;6.90;99.90;;;;;;20665751;28;21147;-46
2022/02/21 22:37:22;;;;;;;6.60;1.25;;;6.80;99.90;;;;;;20667418;28;20458;-46
2022/02/21 22:47:23;;;;;;;14.57;2.30;;;6.70;99.90;;;;;;20657725;28;20042;-46
2022/02/21 22:57:24;;;;;;;10.00;1.33;;;6.60;99.90;;;;;;20640756;28;20046;-46
2022/02/21 23:17:45;;;;;;;9.25;2.08;;;6.50;99.90;;;;;;20656136;28;20050;-46
2022/02/21 23:27:46;;;;;;;13.32;2.08;;;6.40;99.90;;;;;;20653227;28;20042;-46
2022/02/21 23:37:48;;;;;;;4.65;1.02;;;6.30;99.90;;;;;;20653926;28;20065;-46
2022/02/21 23:47:49;;;;;;;7.72;2.17;;;6.20;99.90;;;;;;20657975;28;20060;-46
2022/02/21 23:57:50;;;;;;;9.18;1.42;;;6.10;99.90;;;;;;20655769;28;20054;-46
